sensor_id;sensor_type;location;lat;lon;timestamp;pressure;altitude;pressure_sealevel;temperature;humidity
19761;BME280;10039;42.632;23.408;2022-12-07T00:00:42;94980.31;;;6.61;76.42
19761;BME280;10039;42.632;23.408;2022-12-07T00:03:07;95005.25;;;6.84;76.78
19761;BME280;10039;42.632;23.408;2022-12-07T00:05:33;95002.25;;;6.75;76.59
19761;BME280;10039;42.632;23.408;2022-12-07T00:07:58;95011.75;;;6.59;77.39
19761;BME280;10039;42.632;23.408;2022-12-07T00:10:23;95003.06;;;6.55;77.71
19761;BME280;10039;42.632;23.408;2022-12-07T00:12:49;94999.31;;;6.52;78.15
19761;BME280;10039;42.632;23.408;2022-12-07T00:15:15;95011.00;;;6.55;78.08
19761;BME280;10039;42.632;23.408;2022-12-07T00:17:41;94984.94;;;6.39;78.09
19761;BME280;10039;42.632;23.408;2022-12-07T00:20:06;94997.06;;;6.44;78.00
19761;BME280;10039;42.632;23.408;2022-12-07T00:22:32;94997.44;;;6.42;77.88
19761;BME280;10039;42.632;23.408;2022-12-07T00:24:57;95001.97;;;6.42;78.07
19761;BME280;10039;42.632;23.408;2022-12-07T00:27:23;94997.47;;;6.35;78.79
19761;BME280;10039;42.632;23.408;2022-12-07T00:29:48;94983.84;;;6.26;78.57
19761;BME280;10039;42.632;23.408;2022-12-07T00:32:14;94968.00;;;6.09;78.86
19761;BME280;10039;42.632;23.408;2022-12-07T00:34:39;94988.78;;;6.31;79.31
19761;BME280;10039;42.632;23.408;2022-12-07T00:37:04;94945.66;;;6.06;78.61
19761;BME280;10039;42.632;23.408;2022-12-07T00:39:30;94979.69;;;6.22;78.83
19761;BME280;10039;42.632;23.408;2022-12-07T00:41:55;94995.19;;;6.27;79.37
19761;BME280;10039;42.632;23.408;2022-12-07T00:44:22;94995.94;;;6.38;79.48
19761;BME280;10039;42.632;23.408;2022-12-07T00:46:47;94990.59;;;6.52;78.50
19761;BME280;10039;42.632;23.408;2022-12-07T00:49:13;95002.34;;;6.51;78.02
19761;BME280;10039;42.632;23.408;2022-12-07T00:51:38;94995.53;;;6.50;78.22
19761;BME280;10039;42.632;23.408;2022-12-07T00:54:04;94969.03;;;6.39;77.69
19761;BME280;10039;42.632;23.408;2022-12-07T00:56:29;94983.41;;;6.49;78.15
19761;BME280;10039;42.632;23.408;2022-12-07T00:58:57;94983.78;;;6.54;78.27
19761;BME280;10039;42.632;23.408;2022-12-07T01:01:24;94969.75;;;6.54;77.99
19761;BME280;10039;42.632;23.408;2022-12-07T01:03:50;94977.31;;;6.62;77.75
19761;BME280;10039;42.632;23.408;2022-12-07T01:06:16;94986.38;;;6.64;77.44
19761;BME280;10039;42.632;23.408;2022-12-07T01:08:43;94987.50;;;6.70;77.21
19761;BME280;10039;42.632;23.408;2022-12-07T01:11:12;94990.88;;;6.78;76.93
19761;BME280;10039;42.632;23.408;2022-12-07T01:13:38;94983.31;;;6.69;76.89
19761;BME280;10039;42.632;23.408;2022-12-07T01:16:05;94983.31;;;6.69;76.96
19761;BME280;10039;42.632;23.408;2022-12-07T01:18:32;94989.06;;;6.61;77.64
19761;BME280;10039;42.632;23.408;2022-12-07T01:20:59;94982.22;;;6.57;77.40
19761;BME280;10039;42.632;23.408;2022-12-07T01:23:25;94934.28;;;6.23;77.93
19761;BME280;10039;42.632;23.408;2022-12-07T01:26:02;94969.03;;;6.50;77.91
19761;BME280;10039;42.632;23.408;2022-12-07T01:28:28;94976.59;;;6.48;77.99
19761;BME280;10039;42.632;23.408;2022-12-07T01:31:02;94972.84;;;6.42;78.12
19761;BME280;10039;42.632;23.408;2022-12-07T01:33:30;94963.34;;;6.44;78.50
19761;BME280;10039;42.632;23.408;2022-12-07T01:36:04;94972.44;;;6.43;78.43
19761;BME280;10039;42.632;23.408;2022-12-07T01:38:31;94964.50;;;6.40;78.33
19761;BME280;10039;42.632;23.408;2022-12-07T01:40:58;94972.84;;;6.42;78.64
19761;BME280;10039;42.632;23.408;2022-12-07T01:43:26;94971.69;;;6.50;78.09
19761;BME280;10039;42.632;23.408;2022-12-07T01:45:53;94962.19;;;6.52;77.57
19761;BME280;10039;42.632;23.408;2022-12-07T01:48:22;94968.22;;;6.60;77.49
19761;BME280;10039;42.632;23.408;2022-12-07T01:50:51;94959.16;;;6.57;77.51
19761;BME280;10039;42.632;23.408;2022-12-07T01:53:19;94956.13;;;6.48;77.85
19761;BME280;10039;42.632;23.408;2022-12-07T01:55:47;94965.19;;;6.61;77.34
19761;BME280;10039;42.632;23.408;2022-12-07T01:58:15;94970.50;;;6.61;77.28
19761;BME280;10039;42.632;23.408;2022-12-07T02:00:41;94964.44;;;6.54;77.01
19761;BME280;10039;42.632;23.408;2022-12-07T02:03:24;94958.44;;;6.50;77.28
19761;BME280;10039;42.632;23.408;2022-12-07T02:05:53;94953.13;;;6.50;77.24
19761;BME280;10039;42.632;23.408;2022-12-07T02:08:20;94938.72;;;6.47;77.69
19761;BME280;10039;42.632;23.408;2022-12-07T02:10:45;94946.31;;;6.49;77.71
19761;BME280;10039;42.632;23.408;2022-12-07T02:13:23;94950.03;;;6.55;77.36
19761;BME280;10039;42.632;23.408;2022-12-07T02:22:01;94945.56;;;6.45;77.64
19761;BME280;10039;42.632;23.408;2022-12-07T02:27:44;94945.88;;;6.54;77.64
19761;BME280;10039;42.632;23.408;2022-12-07T02:30:16;94954.25;;;6.49;77.39
19761;BME280;10039;42.632;23.408;2022-12-07T02:33:18;94938.72;;;6.51;77.43
19761;BME280;10039;42.632;23.408;2022-12-07T02:36:07;94931.91;;;6.46;77.76
19761;BME280;10039;42.632;23.408;2022-12-07T02:38:58;94931.94;;;6.43;77.61
19761;BME280;10039;42.632;23.408;2022-12-07T02:41:44;94933.09;;;6.35;77.85
19761;BME280;10039;42.632;23.408;2022-12-07T02:44:14;94922.16;;;6.26;77.97
19761;BME280;10039;42.632;23.408;2022-12-07T02:46:44;94925.97;;;6.18;78.53
19761;BME280;10039;42.632;23.408;2022-12-07T02:49:12;94925.59;;;6.16;79.24
19761;BME280;10039;42.632;23.408;2022-12-07T02:51:43;94935.75;;;6.28;78.89
19761;BME280;10039;42.632;23.408;2022-12-07T02:54:15;94947.13;;;6.25;79.19
19761;BME280;10039;42.632;23.408;2022-12-07T03:06:53;94920.31;;;6.16;79.87
19761;BME280;10039;42.632;23.408;2022-12-07T03:09:36;94918.38;;;6.23;79.59
19761;BME280;10039;42.632;23.408;2022-12-07T03:12:19;94917.25;;;6.24;79.33
19761;BME280;10039;42.632;23.408;2022-12-07T03:14:50;94914.59;;;6.24;78.95
19761;BME280;10039;42.632;23.408;2022-12-07T03:17:24;94916.81;;;6.33;78.42
19761;BME280;10039;42.632;23.408;2022-12-07T03:19:53;94893.03;;;6.15;78.32
19761;BME280;10039;42.632;23.408;2022-12-07T03:22:22;94905.47;;;6.36;78.02
19761;BME280;10039;42.632;23.408;2022-12-07T03:24:55;94903.94;;;6.35;77.64
19761;BME280;10039;42.632;23.408;2022-12-07T03:27:25;94906.97;;;6.37;77.73
19761;BME280;10039;42.632;23.408;2022-12-07T03:30:02;94910.78;;;6.29;77.46
19761;BME280;10039;42.632;23.408;2022-12-07T03:32:34;94898.72;;;6.21;77.96
19761;BME280;10039;42.632;23.408;2022-12-07T03:38:19;94910.81;;;6.22;77.79
19761;BME280;10039;42.632;23.408;2022-12-07T03:43:31;94910.84;;;6.11;77.98
19761;BME280;10039;42.632;23.408;2022-12-07T03:49:21;94914.66;;;6.00;78.72
19761;BME280;10039;42.632;23.408;2022-12-07T03:54:40;94901.47;;;5.86;79.74
19761;BME280;10039;42.632;23.408;2022-12-07T03:57:10;94894.28;;;5.83;80.13
19761;BME280;10039;42.632;23.408;2022-12-07T03:59:38;94908.63;;;5.92;79.91
19761;BME280;10039;42.632;23.408;2022-12-07T04:02:06;94911.63;;;6.05;79.71
19761;BME280;10039;42.632;23.408;2022-12-07T04:04:33;94910.88;;;6.04;79.49
19761;BME280;10039;42.632;23.408;2022-12-07T04:06:58;94901.03;;;6.05;79.58
19761;BME280;10039;42.632;23.408;2022-12-07T04:09:24;94894.97;;;6.01;79.13
19761;BME280;10039;42.632;23.408;2022-12-07T04:11:50;94901.78;;;6.09;78.68
19761;BME280;10039;42.632;23.408;2022-12-07T04:14:15;94898.78;;;5.96;78.97
19761;BME280;10039;42.632;23.408;2022-12-07T04:16:51;94907.81;;;6.13;78.81
19761;BME280;10039;42.632;23.408;2022-12-07T04:19:21;94911.22;;;6.17;78.46
19761;BME280;10039;42.632;23.408;2022-12-07T04:21:48;94888.16;;;6.07;78.33
19761;BME280;10039;42.632;23.408;2022-12-07T04:24:14;94911.59;;;6.19;78.69
19761;BME280;10039;42.632;23.408;2022-12-07T04:26:40;94897.59;;;6.15;78.50
19761;BME280;10039;42.632;23.408;2022-12-07T04:29:06;94909.31;;;6.10;78.27
19761;BME280;10039;42.632;23.408;2022-12-07T04:31:32;94902.94;;;6.01;78.93
19761;BME280;10039;42.632;23.408;2022-12-07T04:33:57;94901.41;;;6.07;79.10
19761;BME280;10039;42.632;23.408;2022-12-07T04:36:22;94908.94;;;6.08;78.59
19761;BME280;10039;42.632;23.408;2022-12-07T04:38:48;94909.34;;;6.14;78.75
19761;BME280;10039;42.632;23.408;2022-12-07T04:41:13;94911.59;;;6.19;77.98
19761;BME280;10039;42.632;23.408;2022-12-07T04:43:39;94915.38;;;6.18;77.96
19761;BME280;10039;42.632;23.408;2022-12-07T04:46:04;94913.09;;;6.16;78.06
19761;BME280;10039;42.632;23.408;2022-12-07T04:48:30;94911.66;;;6.01;78.09
19761;BME280;10039;42.632;23.408;2022-12-07T04:50:56;94913.13;;;6.09;78.22
19761;BME280;10039;42.632;23.408;2022-12-07T04:53:22;94916.88;;;6.15;77.91
19761;BME280;10039;42.632;23.408;2022-12-07T04:55:47;94916.16;;;6.15;77.95
19761;BME280;10039;42.632;23.408;2022-12-07T04:58:13;94916.16;;;6.08;78.07
19761;BME280;10039;42.632;23.408;2022-12-07T05:00:39;94899.59;;;5.83;78.25
19761;BME280;10039;42.632;23.408;2022-12-07T05:03:05;94911.63;;;5.98;78.39
19761;BME280;10039;42.632;23.408;2022-12-07T05:05:30;94920.72;;;6.00;78.19
19761;BME280;10039;42.632;23.408;2022-12-07T05:07:55;94924.13;;;6.01;78.07
19761;BME280;10039;42.632;23.408;2022-12-07T05:10:21;94907.09;;;5.95;78.21
19761;BME280;10039;42.632;23.408;2022-12-07T05:12:47;94921.09;;;5.99;77.98
19761;BME280;10039;42.632;23.408;2022-12-07T05:15:13;94900.31;;;5.90;78.04
19761;BME280;10039;42.632;23.408;2022-12-07T05:17:41;94914.66;;;5.93;77.78
19761;BME280;10039;42.632;23.408;2022-12-07T05:20:08;94886.72;;;5.78;77.77
19761;BME280;10039;42.632;23.408;2022-12-07T05:22:33;94898.06;;;5.71;77.71
19761;BME280;10039;42.632;23.408;2022-12-07T05:24:59;94915.84;;;5.67;78.29
19761;BME280;10039;42.632;23.408;2022-12-07T05:27:24;94924.53;;;5.75;78.62
19761;BME280;10039;42.632;23.408;2022-12-07T05:29:50;94914.31;;;5.80;78.31
19761;BME280;10039;42.632;23.408;2022-12-07T05:32:17;94915.47;;;5.65;78.36
19761;BME280;10039;42.632;23.408;2022-12-07T05:34:42;94915.81;;;5.71;78.25
19761;BME280;10039;42.632;23.408;2022-12-07T05:37:08;94930.56;;;5.75;78.57
19761;BME280;10039;42.632;23.408;2022-12-07T05:39:34;94923.38;;;5.76;78.40
19761;BME280;10039;42.632;23.408;2022-12-07T05:41:59;94923.00;;;5.74;78.58
19761;BME280;10039;42.632;23.408;2022-12-07T05:44:45;94919.63;;;5.66;78.74
19761;BME280;10039;42.632;23.408;2022-12-07T05:47:12;94896.56;;;5.53;78.68
19761;BME280;10039;42.632;23.408;2022-12-07T05:49:38;94909.41;;;5.68;79.21
19761;BME280;10039;42.632;23.408;2022-12-07T05:52:05;94911.69;;;5.66;79.20
19761;BME280;10039;42.632;23.408;2022-12-07T05:54:30;94913.94;;;5.61;79.33
19761;BME280;10039;42.632;23.408;2022-12-07T05:56:56;94909.78;;;5.74;79.83
19761;BME280;10039;42.632;23.408;2022-12-07T05:59:21;94912.44;;;5.81;79.14
19761;BME280;10039;42.632;23.408;2022-12-07T06:02:03;94914.72;;;5.79;79.29
19761;BME280;10039;42.632;23.408;2022-12-07T06:04:32;94905.25;;;5.85;78.88
19761;BME280;10039;42.632;23.408;2022-12-07T06:06:57;94894.25;;;5.76;78.97
19761;BME280;10039;42.632;23.408;2022-12-07T06:09:24;94907.91;;;5.85;78.85
19761;BME280;10039;42.632;23.408;2022-12-07T06:11:50;94907.13;;;5.88;78.52
19761;BME280;10039;42.632;23.408;2022-12-07T06:14:34;94906.00;;;5.82;78.67
19761;BME280;10039;42.632;23.408;2022-12-07T06:17:00;94913.97;;;5.82;79.12
19761;BME280;10039;42.632;23.408;2022-12-07T06:19:26;94909.03;;;5.80;79.03
19761;BME280;10039;42.632;23.408;2022-12-07T06:21:52;94912.06;;;5.79;79.11
19761;BME280;10039;42.632;23.408;2022-12-07T06:24:17;94906.41;;;5.56;78.94
19761;BME280;10039;42.632;23.408;2022-12-07T06:26:44;94920.38;;;5.60;79.41
19761;BME280;10039;42.632;23.408;2022-12-07T06:29:10;94919.25;;;5.57;79.02
19761;BME280;10039;42.632;23.408;2022-12-07T06:31:36;94904.13;;;5.51;79.83
19761;BME280;10039;42.632;23.408;2022-12-07T06:34:05;94909.44;;;5.51;80.40
19761;BME280;10039;42.632;23.408;2022-12-07T06:36:32;94924.91;;;5.63;80.12
19761;BME280;10039;42.632;23.408;2022-12-07T06:38:57;94915.81;;;5.71;80.25
19761;BME280;10039;42.632;23.408;2022-12-07T06:41:23;94898.09;;;5.54;79.88
19761;BME280;10039;42.632;23.408;2022-12-07T06:43:49;94921.16;;;5.78;79.93
19761;BME280;10039;42.632;23.408;2022-12-07T06:46:15;94904.88;;;5.62;79.97
19761;BME280;10039;42.632;23.408;2022-12-07T06:48:41;94928.31;;;5.67;80.58
19761;BME280;10039;42.632;23.408;2022-12-07T06:51:07;94925.31;;;5.79;80.55
19761;BME280;10039;42.632;23.408;2022-12-07T06:53:33;94898.06;;;5.68;80.47
19761;BME280;10039;42.632;23.408;2022-12-07T06:55:58;94930.56;;;6.00;80.48
19761;BME280;10039;42.632;23.408;2022-12-07T06:58:23;94915.38;;;6.07;79.97
19761;BME280;10039;42.632;23.408;2022-12-07T07:00:49;94926.00;;;6.11;80.59
19761;BME280;10039;42.632;23.408;2022-12-07T07:03:17;94912.78;;;5.97;80.11
19761;BME280;10039;42.632;23.408;2022-12-07T07:05:43;94920.66;;;6.14;80.85
19761;BME280;10039;42.632;23.408;2022-12-07T07:08:10;94932.00;;;6.25;80.60
19761;BME280;10039;42.632;23.408;2022-12-07T07:10:36;94935.75;;;6.35;80.25
19761;BME280;10039;42.632;23.408;2022-12-07T07:13:01;94920.56;;;6.42;79.87
19761;BME280;10039;42.632;23.408;2022-12-07T07:15:27;94920.53;;;6.53;79.97
19761;BME280;10039;42.632;23.408;2022-12-07T07:17:52;94926.56;;;6.60;79.60
19761;BME280;10039;42.632;23.408;2022-12-07T07:20:18;94929.59;;;6.62;79.65
19761;BME280;10039;42.632;23.408;2022-12-07T07:22:43;94928.75;;;6.72;79.54
19761;BME280;10039;42.632;23.408;2022-12-07T07:25:09;94928.72;;;6.82;79.60
19761;BME280;10039;42.632;23.408;2022-12-07T07:27:34;94931.72;;;6.88;79.81
19761;BME280;10039;42.632;23.408;2022-12-07T07:29:59;94932.78;;;6.97;79.70
19761;BME280;10039;42.632;23.408;2022-12-07T07:32:25;94928.97;;;7.05;78.93
19761;BME280;10039;42.632;23.408;2022-12-07T07:34:50;94929.72;;;7.06;79.19
19761;BME280;10039;42.632;23.408;2022-12-07T07:37:15;94933.84;;;7.14;78.61
19761;BME280;10039;42.632;23.408;2022-12-07T07:39:41;94945.22;;;7.14;78.81
19761;BME280;10039;42.632;23.408;2022-12-07T07:42:06;94944.41;;;7.21;78.42
19761;BME280;10039;42.632;23.408;2022-12-07T07:44:33;94948.53;;;7.25;78.27
19761;BME280;10039;42.632;23.408;2022-12-07T07:46:59;94942.03;;;7.33;78.27
19761;BME280;10039;42.632;23.408;2022-12-07T07:49:25;94935.63;;;7.27;78.69
19761;BME280;10039;42.632;23.408;2022-12-07T07:51:50;94931.47;;;7.26;78.62
19761;BME280;10039;42.632;23.408;2022-12-07T07:54:15;94935.91;;;7.40;78.23
19761;BME280;10039;42.632;23.408;2022-12-07T07:56:41;94936.72;;;7.33;78.33
19761;BME280;10039;42.632;23.408;2022-12-07T07:59:06;94934.78;;;7.41;78.58
19761;BME280;10039;42.632;23.408;2022-12-07T08:01:31;94929.44;;;7.44;78.11
19761;BME280;10039;42.632;23.408;2022-12-07T08:03:57;94932.47;;;7.43;78.82
19761;BME280;10039;42.632;23.408;2022-12-07T08:06:22;94931.66;;;7.53;77.74
19761;BME280;10039;42.632;23.408;2022-12-07T08:08:47;94933.22;;;7.47;78.18
19761;BME280;10039;42.632;23.408;2022-12-07T08:11:13;94947.53;;;7.60;78.14
19761;BME280;10039;42.632;23.408;2022-12-07T08:13:38;94933.44;;;7.66;78.05
19761;BME280;10039;42.632;23.408;2022-12-07T08:16:09;94931.03;;;7.78;77.96
19761;BME280;10039;42.632;23.408;2022-12-07T08:18:35;94932.88;;;7.85;77.54
19761;BME280;10039;42.632;23.408;2022-12-07T08:21:02;94930.94;;;7.92;76.92
19761;BME280;10039;42.632;23.408;2022-12-07T08:23:28;94923.22;;;8.01;75.92
19761;BME280;10039;42.632;23.408;2022-12-07T08:25:53;94936.50;;;8.05;75.77
19761;BME280;10039;42.632;23.408;2022-12-07T08:28:19;94917.09;;;8.08;75.90
19761;BME280;10039;42.632;23.408;2022-12-07T08:30:44;94926.88;;;8.18;75.21
19761;BME280;10039;42.632;23.408;2022-12-07T08:33:10;94920.78;;;8.21;75.44
19761;BME280;10039;42.632;23.408;2022-12-07T08:35:35;94930.25;;;8.25;75.33
19761;BME280;10039;42.632;23.408;2022-12-07T08:38:01;94922.22;;;8.29;75.54
19761;BME280;10039;42.632;23.408;2022-12-07T08:40:27;94898.00;;;8.20;75.08
19761;BME280;10039;42.632;23.408;2022-12-07T08:42:53;94913.81;;;8.34;75.69
19761;BME280;10039;42.632;23.408;2022-12-07T08:45:20;94915.94;;;8.46;75.29
19761;BME280;10039;42.632;23.408;2022-12-07T08:48:00;94929.47;;;8.58;75.86
19761;BME280;10039;42.632;23.408;2022-12-07T08:50:27;94913.38;;;8.69;75.56
19761;BME280;10039;42.632;23.408;2022-12-07T08:52:55;94911.25;;;8.87;74.28
19761;BME280;10039;42.632;23.408;2022-12-07T08:55:22;94909.22;;;8.94;74.14
19761;BME280;10039;42.632;23.408;2022-12-07T08:57:48;94907.97;;;9.02;73.42
19761;BME280;10039;42.632;23.408;2022-12-07T09:00:15;94913.03;;;8.93;73.20
19761;BME280;10039;42.632;23.408;2022-12-07T09:02:43;94905.38;;;8.98;73.27
19761;BME280;10039;42.632;23.408;2022-12-07T09:05:10;94898.50;;;9.01;73.16
19761;BME280;10039;42.632;23.408;2022-12-07T09:07:36;94896.16;;;9.06;73.26
19761;BME280;10039;42.632;23.408;2022-12-07T09:10:03;94887.84;;;9.01;72.76
19761;BME280;10039;42.632;23.408;2022-12-07T09:12:28;94902.84;;;9.14;72.32
19761;BME280;10039;42.632;23.408;2022-12-07T09:14:54;94900.44;;;9.23;72.41
19761;BME280;10039;42.632;23.408;2022-12-07T09:17:19;94903.91;;;9.20;72.46
19761;BME280;10039;42.632;23.408;2022-12-07T09:19:44;94897.44;;;9.21;71.89
19761;BME280;10039;42.632;23.408;2022-12-07T09:22:10;94888.38;;;9.15;71.87
19761;BME280;10039;42.632;23.408;2022-12-07T09:24:36;94890.56;;;9.24;72.01
19761;BME280;10039;42.632;23.408;2022-12-07T09:27:01;94871.50;;;9.25;71.86
19761;BME280;10039;42.632;23.408;2022-12-07T09:29:27;94875.94;;;9.35;71.94
19761;BME280;10039;42.632;23.408;2022-12-07T09:31:52;94872.09;;;9.36;71.31
19761;BME280;10039;42.632;23.408;2022-12-07T09:34:18;94876.63;;;9.39;71.81
19761;BME280;10039;42.632;23.408;2022-12-07T09:36:44;94864.56;;;9.31;71.36
19761;BME280;10039;42.632;23.408;2022-12-07T09:39:09;94872.50;;;9.35;71.98
19761;BME280;10039;42.632;23.408;2022-12-07T09:41:39;94862.47;;;9.42;71.42
19761;BME280;10039;42.632;23.408;2022-12-07T09:44:09;94838.22;;;9.37;71.69
19761;BME280;10039;42.632;23.408;2022-12-07T09:46:39;94866.06;;;9.55;71.30
19761;BME280;10039;42.632;23.408;2022-12-07T09:49:10;94850.09;;;9.55;71.13
19761;BME280;10039;42.632;23.408;2022-12-07T09:51:36;94850.56;;;9.50;71.15
19761;BME280;10039;42.632;23.408;2022-12-07T09:54:02;94852.56;;;9.66;71.16
19761;BME280;10039;42.632;23.408;2022-12-07T09:56:31;94834.19;;;9.52;70.43
19761;BME280;10039;42.632;23.408;2022-12-07T09:59:01;94850.03;;;9.59;70.92
19761;BME280;10039;42.632;23.408;2022-12-07T10:01:30;94850.31;;;9.64;71.30
19761;BME280;10039;42.632;23.408;2022-12-07T10:04:18;94846.72;;;9.74;70.87
19761;BME280;10039;42.632;23.408;2022-12-07T10:06:44;94837.16;;;9.77;70.77
19761;BME280;10039;42.632;23.408;2022-12-07T10:09:19;94834.16;;;9.75;70.27
19761;BME280;10039;42.632;23.408;2022-12-07T10:12:02;94830.38;;;9.72;70.32
19761;BME280;10039;42.632;23.408;2022-12-07T10:14:30;94833.22;;;9.85;70.73
19761;BME280;10039;42.632;23.408;2022-12-07T10:16:56;94829.31;;;9.89;70.01
19761;BME280;10039;42.632;23.408;2022-12-07T10:19:32;94826.72;;;9.86;70.47
19761;BME280;10039;42.632;23.408;2022-12-07T10:24:34;94813.59;;;9.95;70.13
19761;BME280;10039;42.632;23.408;2022-12-07T10:27:00;94822.91;;;10.06;70.18
19761;BME280;10039;42.632;23.408;2022-12-07T10:29:39;94817.66;;;10.02;69.96
19761;BME280;10039;42.632;23.408;2022-12-07T10:32:26;94812.59;;;10.08;69.73
19761;BME280;10039;42.632;23.408;2022-12-07T10:35:18;94810.94;;;10.14;69.10
19761;BME280;10039;42.632;23.408;2022-12-07T10:37:44;94800.63;;;10.16;68.65
19761;BME280;10039;42.632;23.408;2022-12-07T10:40:36;94791.25;;;10.27;68.90
19761;BME280;10039;42.632;23.408;2022-12-07T10:48:34;94787.28;;;10.35;67.96
19761;BME280;10039;42.632;23.408;2022-12-07T10:51:27;94786.53;;;10.35;67.74
19761;BME280;10039;42.632;23.408;2022-12-07T10:54:14;94781.84;;;10.39;67.59
19761;BME280;10039;42.632;23.408;2022-12-07T11:12:59;94754.88;;;10.69;67.08
19761;BME280;10039;42.632;23.408;2022-12-07T11:18:09;94754.53;;;10.51;67.23
19761;BME280;10039;42.632;23.408;2022-12-07T11:31:52;94747.72;;;10.66;66.72
19761;BME280;10039;42.632;23.408;2022-12-07T11:37:08;94724.63;;;10.59;66.45
19761;BME280;10039;42.632;23.408;2022-12-07T11:39:44;94719.78;;;10.54;66.33
19761;BME280;10039;42.632;23.408;2022-12-07T11:42:39;94726.88;;;10.61;67.38
19761;BME280;10039;42.632;23.408;2022-12-07T11:45:20;94716.44;;;10.66;66.93
19761;BME280;10039;42.632;23.408;2022-12-07T11:48:16;94715.28;;;10.67;67.22
19761;BME280;10039;42.632;23.408;2022-12-07T11:50:45;94706.53;;;10.67;66.12
19761;BME280;10039;42.632;23.408;2022-12-07T11:53:25;94701.94;;;10.67;67.31
19761;BME280;10039;42.632;23.408;2022-12-07T11:56:17;94705.03;;;10.66;66.56
19761;BME280;10039;42.632;23.408;2022-12-07T11:58:49;94691.25;;;10.67;66.98
19761;BME280;10039;42.632;23.408;2022-12-07T12:01:29;94696.50;;;10.71;66.27
19761;BME280;10039;42.632;23.408;2022-12-07T12:06:34;94691.69;;;10.82;66.55
19761;BME280;10039;42.632;23.408;2022-12-07T12:09:20;94682.94;;;10.81;66.32
19761;BME280;10039;42.632;23.408;2022-12-07T12:18:34;94686.25;;;10.85;66.73
19761;BME280;10039;42.632;23.408;2022-12-07T12:21:01;94680.16;;;10.85;66.54
19761;BME280;10039;42.632;23.408;2022-12-07T12:26:00;94658.31;;;10.74;66.73
19761;BME280;10039;42.632;23.408;2022-12-07T12:33:33;94649.31;;;10.68;66.20
19761;BME280;10039;42.632;23.408;2022-12-07T12:50:17;94648.25;;;10.49;67.22
19761;BME280;10039;42.632;23.408;2022-12-07T12:57:35;94644.16;;;10.61;66.94
19761;BME280;10039;42.632;23.408;2022-12-07T13:00:15;94646.63;;;10.68;67.17
19761;BME280;10039;42.632;23.408;2022-12-07T13:02:54;94645.22;;;10.63;67.19
19761;BME280;10039;42.632;23.408;2022-12-07T13:05:22;94645.34;;;10.60;66.91
19761;BME280;10039;42.632;23.408;2022-12-07T13:07:52;94650.16;;;10.65;67.51
19761;BME280;10039;42.632;23.408;2022-12-07T13:10:38;94646.91;;;10.73;67.36
19761;BME280;10039;42.632;23.408;2022-12-07T13:15:45;94644.41;;;10.82;66.49
19761;BME280;10039;42.632;23.408;2022-12-07T13:28:49;94647.47;;;10.81;66.77
19761;BME280;10039;42.632;23.408;2022-12-07T13:31:44;94651.97;;;10.84;66.57
19761;BME280;10039;42.632;23.408;2022-12-07T13:36:54;94644.63;;;10.72;67.02
19761;BME280;10039;42.632;23.408;2022-12-07T13:39:23;94643.97;;;10.84;67.07
19761;BME280;10039;42.632;23.408;2022-12-07T13:41:52;94613.47;;;10.53;67.29
19761;BME280;10039;42.632;23.408;2022-12-07T13:44:18;94647.63;;;10.74;67.54
19761;BME280;10039;42.632;23.408;2022-12-07T13:47:06;94645.63;;;10.78;67.84
19761;BME280;10039;42.632;23.408;2022-12-07T13:49:47;94636.28;;;10.86;67.39
19761;BME280;10039;42.632;23.408;2022-12-07T13:52:18;94634.63;;;10.76;67.87
19761;BME280;10039;42.632;23.408;2022-12-07T13:54:54;94623.22;;;10.75;67.92
19761;BME280;10039;42.632;23.408;2022-12-07T13:57:21;94631.69;;;10.86;67.42
19761;BME280;10039;42.632;23.408;2022-12-07T13:59:47;94624.34;;;10.90;67.64
19761;BME280;10039;42.632;23.408;2022-12-07T14:02:27;94623.59;;;10.90;67.09
19761;BME280;10039;42.632;23.408;2022-12-07T14:10:28;94631.44;;;10.81;67.27
19761;BME280;10039;42.632;23.408;2022-12-07T14:12:55;94622.63;;;10.68;67.57
19761;BME280;10039;42.632;23.408;2022-12-07T14:15:23;94632.22;;;10.65;68.05
19761;BME280;10039;42.632;23.408;2022-12-07T14:17:50;94648.31;;;10.78;67.37
19761;BME280;10039;42.632;23.408;2022-12-07T14:20:39;94640.97;;;10.82;67.47
19761;BME280;10039;42.632;23.408;2022-12-07T14:23:23;94639.13;;;10.79;67.96
19761;BME280;10039;42.632;23.408;2022-12-07T14:25:51;94648.22;;;10.81;67.93
19761;BME280;10039;42.632;23.408;2022-12-07T14:28:31;94627.56;;;10.69;67.57
19761;BME280;10039;42.632;23.408;2022-12-07T14:30:57;94633.06;;;10.62;68.18
19761;BME280;10039;42.632;23.408;2022-12-07T14:33:24;94631.31;;;10.56;68.48
19761;BME280;10039;42.632;23.408;2022-12-07T14:35:50;94631.16;;;10.47;68.26
19761;BME280;10039;42.632;23.408;2022-12-07T14:38:20;94634.00;;;10.56;68.49
19761;BME280;10039;42.632;23.408;2022-12-07T14:40:46;94633.66;;;10.54;68.40
19761;BME280;10039;42.632;23.408;2022-12-07T14:43:13;94633.75;;;10.50;68.21
19761;BME280;10039;42.632;23.408;2022-12-07T14:45:39;94630.47;;;10.43;68.56
19761;BME280;10039;42.632;23.408;2022-12-07T14:48:05;94644.50;;;10.47;68.14
19761;BME280;10039;42.632;23.408;2022-12-07T14:50:36;94636.16;;;10.45;68.25
19761;BME280;10039;42.632;23.408;2022-12-07T14:53:10;94643.47;;;10.41;68.38
19761;BME280;10039;42.632;23.408;2022-12-07T14:55:36;94641.84;;;10.31;68.78
19761;BME280;10039;42.632;23.408;2022-12-07T14:58:01;94655.00;;;10.22;68.60
19761;BME280;10039;42.632;23.408;2022-12-07T15:00:27;94647.47;;;10.17;68.67
19761;BME280;10039;42.632;23.408;2022-12-07T15:02:54;94652.47;;;10.15;69.21
19761;BME280;10039;42.632;23.408;2022-12-07T15:05:20;94657.63;;;10.06;68.99
19761;BME280;10039;42.632;23.408;2022-12-07T15:07:46;94660.09;;;9.97;69.31
19761;BME280;10039;42.632;23.408;2022-12-07T15:10:22;94653.63;;;9.79;69.54
19761;BME280;10039;42.632;23.408;2022-12-07T15:12:47;94655.38;;;9.69;69.81
19761;BME280;10039;42.632;23.408;2022-12-07T15:15:13;94666.75;;;9.70;70.12
19761;BME280;10039;42.632;23.408;2022-12-07T15:17:39;94653.75;;;9.56;70.70